createdAt,value
2023-04-30T00:00:14.747Z,10.21
2023-04-30T00:05:16.573Z,10.18
2023-04-30T00:10:20.236Z,10.16
2023-04-30T00:15:21.822Z,10.10
2023-04-30T00:20:23.420Z,9.99
2023-04-30T00:25:25.062Z,9.94
2023-04-30T00:30:26.704Z,9.96
2023-04-30T00:35:28.365Z,9.96
2023-04-30T00:40:30.265Z,9.96
2023-04-30T00:45:31.988Z,9.95
2023-04-30T00:50:36.517Z,9.94
2023-04-30T00:55:40.614Z,9.93
2023-04-30T01:00:47.097Z,9.91
2023-04-30T01:05:51.428Z,9.88
2023-04-30T01:11:07.302Z,9.91
2023-04-30T01:16:21.989Z,9.85
2023-04-30T01:21:24.489Z,9.85
2023-04-30T01:27:15.693Z,9.94
2023-04-30T01:32:17.340Z,9.97
2023-04-30T01:37:46.248Z,9.93
2023-04-30T01:43:12.146Z,9.90
2023-04-30T01:48:44.828Z,9.82
2023-04-30T01:53:47.196Z,9.73
2023-04-30T01:58:53.675Z,9.59
2023-04-30T02:03:55.492Z,9.65
2023-04-30T02:09:06.216Z,9.63
2023-04-30T02:14:08.055Z,9.60
2023-04-30T02:19:11.232Z,9.64
2023-04-30T02:24:12.940Z,9.53
2023-04-30T02:29:14.552Z,9.51
2023-04-30T02:34:16.143Z,9.31
2023-04-30T02:39:18.148Z,9.40
2023-04-30T02:44:20.019Z,9.45
2023-04-30T02:49:21.724Z,9.33
2023-04-30T02:54:23.409Z,9.33
2023-04-30T02:59:25.148Z,9.34
2023-04-30T03:04:26.772Z,9.40
2023-04-30T03:09:32.391Z,9.31
2023-04-30T03:14:34.056Z,9.29
2023-04-30T03:19:35.824Z,9.27
2023-04-30T03:24:38.334Z,9.27
2023-04-30T03:29:39.986Z,9.15
2023-04-30T03:34:41.599Z,9.25
2023-04-30T03:39:43.251Z,9.16
2023-04-30T03:44:44.937Z,9.19
2023-04-30T03:49:55.336Z,9.16
2023-04-30T03:54:57.923Z,9.08
2023-04-30T03:59:59.866Z,9.09
2023-04-30T04:05:02.199Z,9.09
2023-04-30T04:10:04.052Z,9.11
2023-04-30T04:15:07.536Z,9.08
2023-04-30T04:20:13.811Z,8.97
2023-04-30T04:25:16.038Z,9.02
2023-04-30T04:30:19.670Z,9.08
2023-04-30T04:35:22.829Z,9.00
2023-04-30T04:40:25.026Z,8.90
2023-04-30T04:45:26.862Z,8.99
2023-04-30T04:50:28.668Z,8.84
2023-04-30T04:55:30.307Z,8.80
2023-04-30T05:00:33.837Z,8.86
2023-04-30T05:05:35.899Z,8.91
2023-04-30T05:10:37.834Z,8.95
2023-04-30T05:15:39.534Z,8.72
2023-04-30T05:20:43.883Z,8.68
2023-04-30T05:25:45.657Z,8.66
2023-04-30T05:30:50.066Z,8.70
2023-04-30T05:35:51.731Z,8.71
2023-04-30T05:40:53.426Z,8.73
2023-04-30T05:45:55.195Z,8.81
2023-04-30T05:50:56.920Z,9.06
2023-04-30T05:55:58.777Z,9.13
2023-04-30T06:01:00.475Z,9.10
2023-04-30T06:06:02.168Z,9.05
2023-04-30T06:11:05.188Z,8.97
2023-04-30T06:16:08.393Z,8.96
2023-04-30T06:21:10.452Z,8.97
2023-04-30T06:26:15.047Z,9.04
2023-04-30T06:31:16.828Z,9.15
2023-04-30T06:36:21.487Z,9.14
2023-04-30T06:41:23.157Z,9.39
2023-04-30T06:46:24.849Z,9.57
2023-04-30T06:51:26.697Z,9.66
2023-04-30T06:56:28.294Z,9.59
2023-04-30T07:01:32.223Z,9.61
2023-04-30T07:06:34.089Z,9.77
2023-04-30T07:11:36.104Z,9.87
2023-04-30T07:16:37.862Z,9.85
2023-04-30T07:21:39.478Z,10.01
2023-04-30T07:26:42.439Z,10.24
2023-04-30T07:31:44.408Z,10.32
2023-04-30T07:36:49.661Z,10.40
2023-04-30T07:41:52.369Z,10.64
2023-04-30T07:46:54.032Z,10.88
2023-04-30T07:51:56.253Z,11.00
2023-04-30T07:56:57.903Z,11.37
2023-04-30T08:02:00.085Z,11.31
2023-04-30T08:07:02.423Z,11.41
2023-04-30T08:12:05.177Z,11.66
2023-04-30T08:17:06.949Z,11.78
2023-04-30T08:22:08.733Z,12.10
2023-04-30T08:27:10.306Z,12.23
2023-04-30T08:32:12.205Z,12.51
2023-04-30T08:37:17.197Z,12.66
2023-04-30T08:42:26.165Z,12.92
2023-04-30T08:47:28.341Z,13.10
2023-04-30T08:52:34.008Z,13.37
2023-04-30T08:57:37.079Z,13.36
2023-04-30T09:02:42.173Z,13.50
2023-04-30T09:08:01.195Z,13.62
2023-04-30T09:13:09.475Z,14.05
2023-04-30T09:18:19.765Z,14.05
2023-04-30T09:23:21.710Z,14.51
2023-04-30T09:28:26.591Z,14.59
2023-04-30T09:33:28.448Z,14.51
2023-04-30T09:38:32.153Z,14.77
2023-04-30T09:43:33.952Z,14.82
2023-04-30T09:48:35.683Z,15.30
2023-04-30T09:53:42.966Z,15.46
2023-04-30T09:58:50.220Z,15.77
2023-04-30T10:03:54.311Z,15.50
2023-04-30T10:08:57.753Z,15.72
2023-04-30T10:14:11.948Z,15.99
2023-04-30T10:19:29.733Z,16.03
2023-04-30T10:24:31.605Z,16.58
2023-04-30T10:29:33.803Z,16.79
2023-04-30T10:34:47.061Z,16.74
2023-04-30T10:39:52.447Z,16.67
2023-04-30T10:44:54.314Z,17.03
2023-04-30T10:50:08.806Z,17.30
2023-04-30T10:55:10.758Z,17.08
2023-04-30T11:00:14.393Z,17.50
2023-04-30T11:05:20.408Z,17.50
2023-04-30T11:10:23.916Z,17.50
2023-04-30T11:15:27.206Z,17.82
2023-04-30T11:20:29.066Z,18.21
2023-04-30T11:25:39.828Z,18.35
2023-04-30T11:30:50.721Z,18.06
2023-04-30T11:35:53.539Z,18.15
2023-04-30T11:40:56.347Z,18.10
2023-04-30T11:46:09.339Z,18.23
2023-04-30T11:51:20.356Z,18.07
2023-04-30T11:56:25.731Z,18.53
2023-04-30T12:01:28.622Z,18.73
2023-04-30T12:06:31.623Z,19.09
2023-04-30T12:11:34.771Z,19.08
2023-04-30T12:16:52.396Z,19.27
2023-04-30T12:21:55.296Z,19.15
2023-04-30T12:27:00.250Z,19.33
2023-04-30T12:32:04.031Z,19.06
2023-04-30T12:37:05.798Z,19.30
2023-04-30T12:42:10.642Z,18.52
2023-04-30T12:47:13.945Z,18.86
2023-04-30T12:52:15.941Z,18.91
2023-04-30T12:57:20.116Z,18.65
2023-04-30T13:02:27.215Z,19.30
2023-04-30T13:07:38.634Z,19.36
2023-04-30T13:12:40.310Z,19.32
2023-04-30T13:17:42.074Z,19.12
2023-04-30T13:22:44.697Z,19.33
2023-04-30T13:27:46.463Z,18.39
2023-04-30T13:32:48.565Z,18.17
2023-04-30T13:37:52.694Z,18.43
2023-04-30T13:42:54.430Z,18.80
2023-04-30T13:47:56.483Z,18.79
2023-04-30T13:52:59.473Z,18.18
2023-04-30T13:58:01.271Z,18.09
2023-04-30T14:03:04.028Z,18.06
2023-04-30T14:08:07.394Z,18.11
2023-04-30T14:13:09.368Z,18.39
2023-04-30T14:18:11.274Z,18.03
2023-04-30T14:23:13.491Z,17.84
2023-04-30T14:28:15.269Z,17.70
2023-04-30T14:33:17.330Z,17.54
2023-04-30T14:38:26.815Z,17.96
2023-04-30T14:43:28.650Z,17.75
2023-04-30T14:48:30.544Z,18.06
2023-04-30T14:53:33.203Z,18.44
2023-04-30T14:58:35.037Z,18.34
2023-04-30T15:03:36.818Z,18.19
2023-04-30T15:08:38.818Z,18.53
2023-04-30T15:13:40.657Z,18.66
2023-04-30T15:18:43.161Z,18.86
2023-04-30T15:23:45.895Z,18.77
2023-04-30T15:28:49.191Z,19.01
2023-04-30T15:33:51.427Z,19.12
2023-04-30T15:38:53.200Z,18.93
2023-04-30T15:43:54.930Z,18.57
2023-04-30T15:48:57.126Z,18.47
2023-04-30T15:53:58.845Z,18.70
2023-04-30T15:59:00.726Z,18.74
2023-04-30T16:04:04.443Z,18.58
2023-04-30T16:09:07.443Z,18.56
2023-04-30T16:14:09.405Z,18.37
2023-04-30T16:19:12.467Z,17.93
2023-04-30T16:24:16.382Z,17.93
2023-04-30T16:29:19.746Z,18.01
2023-04-30T16:34:21.649Z,18.09
2023-04-30T16:39:23.440Z,17.98
2023-04-30T16:44:25.182Z,18.04
2023-04-30T16:49:27.066Z,17.93
2023-04-30T16:54:29.544Z,17.81
2023-04-30T16:59:31.277Z,17.49
2023-04-30T17:04:33.062Z,17.32
2023-04-30T17:09:36.166Z,17.17
2023-04-30T17:14:37.930Z,17.11
2023-04-30T17:19:39.685Z,16.98
2023-04-30T17:24:41.352Z,16.88
2023-04-30T17:29:43.241Z,16.75
2023-04-30T17:34:48.194Z,16.56
2023-04-30T17:39:50.064Z,16.40
2023-04-30T17:44:51.767Z,16.32
2023-04-30T17:49:53.864Z,16.27
2023-04-30T17:54:57.012Z,16.03
2023-04-30T17:59:59.095Z,16.04
2023-04-30T18:05:01.100Z,16.01
2023-04-30T18:10:03.305Z,15.94
2023-04-30T18:15:08.520Z,15.85
2023-04-30T18:20:12.370Z,15.82
2023-04-30T18:25:19.360Z,15.70
2023-04-30T18:30:21.345Z,15.59
2023-04-30T18:35:23.476Z,15.56
2023-04-30T18:40:25.390Z,15.49
2023-04-30T18:45:27.396Z,15.46
2023-04-30T18:50:29.071Z,15.35
2023-04-30T18:55:30.816Z,15.43
2023-04-30T19:00:32.781Z,15.40
2023-04-30T19:05:35.813Z,15.24
2023-04-30T19:10:52.573Z,15.22
2023-04-30T19:16:04.249Z,15.15
2023-04-30T19:21:06.021Z,15.00
2023-04-30T19:26:07.718Z,14.90
2023-04-30T19:31:09.524Z,14.78
2023-04-30T19:36:11.673Z,14.68
2023-04-30T19:41:13.327Z,14.59
2023-04-30T19:46:19.151Z,14.63
2023-04-30T19:51:21.036Z,14.62
2023-04-30T19:56:23.381Z,14.54
2023-04-30T20:01:28.119Z,14.58
2023-04-30T20:06:30.473Z,14.56
2023-04-30T20:11:33.534Z,14.51
2023-04-30T20:16:35.255Z,14.26
2023-04-30T20:21:37.010Z,14.25
2023-04-30T20:26:38.686Z,14.28
2023-04-30T20:31:44.239Z,14.29
2023-04-30T20:37:05.555Z,14.22
2023-04-30T20:42:14.206Z,14.20
2023-04-30T20:47:33.934Z,14.15
2023-04-30T20:52:45.084Z,14.12
2023-04-30T20:57:53.412Z,14.03
2023-04-30T21:03:02.326Z,14.03
2023-04-30T21:08:06.204Z,13.98
2023-04-30T21:13:23.525Z,13.92
2023-04-30T21:18:36.133Z,13.94
2023-04-30T21:23:48.187Z,13.92
2023-04-30T21:28:54.785Z,13.90
2023-04-30T21:34:11.861Z,13.88
2023-04-30T21:39:21.102Z,13.77
2023-04-30T21:44:23.173Z,13.74
2023-04-30T21:49:31.679Z,13.71
2023-04-30T21:54:59.405Z,13.71
2023-04-30T22:00:05.004Z,13.63
2023-04-30T22:05:21.275Z,13.60
2023-04-30T22:10:30.900Z,13.53
2023-04-30T22:15:47.233Z,13.49
2023-04-30T22:20:53.297Z,13.46
2023-04-30T22:26:02.298Z,13.41
2023-04-30T22:31:11.723Z,13.35
2023-04-30T22:36:14.990Z,13.34
2023-04-30T22:41:22.367Z,13.24
2023-04-30T22:46:24.135Z,13.22
2023-04-30T22:51:27.043Z,13.18
2023-04-30T22:56:28.700Z,13.23
2023-04-30T23:01:30.437Z,13.19
2023-04-30T23:06:32.532Z,13.10
2023-04-30T23:11:34.232Z,13.07
2023-04-30T23:16:40.034Z,12.98
2023-04-30T23:21:41.913Z,12.95
2023-04-30T23:26:47.376Z,12.87
2023-04-30T23:31:51.021Z,12.86
2023-04-30T23:36:53.681Z,12.85
2023-04-30T23:41:55.324Z,12.72
2023-04-30T23:46:57.692Z,12.70
2023-04-30T23:51:59.342Z,12.67
2023-04-30T23:57:01.057Z,12.62
